createdAt,value
2019-02-18T00:01:30.059Z,66.58
2019-02-18T00:04:00.398Z,66.72
2019-02-18T00:06:30.794Z,66.47
2019-02-18T00:09:01.126Z,66.62
2019-02-18T00:11:31.481Z,66.57
2019-02-18T00:14:01.831Z,66.82
2019-02-18T00:16:32.277Z,66.90
2019-02-18T00:19:03.023Z,66.90
2019-02-18T00:21:33.350Z,67.03
2019-02-18T00:24:03.789Z,67.16
2019-02-18T00:26:34.165Z,67.24
2019-02-18T00:29:04.560Z,67.21
2019-02-18T00:31:34.861Z,67.15
2019-02-18T00:34:05.269Z,67.15
2019-02-18T00:36:35.668Z,67.16
2019-02-18T00:39:06.503Z,67.19
2019-02-18T00:41:37.305Z,67.30
2019-02-18T00:44:07.638Z,67.40
2019-02-18T00:46:37.964Z,67.44
2019-02-18T00:49:08.912Z,67.57
2019-02-18T00:51:39.257Z,67.43
2019-02-18T00:54:09.657Z,67.41
2019-02-18T00:56:39.992Z,67.61
2019-02-18T00:59:10.385Z,67.80
2019-02-18T01:01:40.791Z,68.02
2019-02-18T01:04:11.161Z,68.12
2019-02-18T01:06:42.082Z,68.27
2019-02-18T01:09:12.452Z,68.52
2019-02-18T01:11:42.813Z,68.79
2019-02-18T01:14:13.311Z,68.95
2019-02-18T01:16:43.957Z,68.98
2019-02-18T01:19:14.263Z,69.01
2019-02-18T01:21:44.656Z,68.85
2019-02-18T01:24:15.384Z,68.87
2019-02-18T01:26:45.755Z,68.73
2019-02-18T01:29:16.261Z,68.68
2019-02-18T01:31:47.019Z,68.51
2019-02-18T01:34:17.540Z,68.41
2019-02-18T01:36:47.964Z,68.29
2019-02-18T01:39:18.243Z,68.13
2019-02-18T01:41:48.679Z,68.13
2019-02-18T01:44:19.416Z,68.15
2019-02-18T01:46:54.493Z,68.03
2019-02-18T01:49:24.825Z,68.09
2019-02-18T01:51:55.223Z,68.11
2019-02-18T01:54:25.529Z,68.06
2019-02-18T01:56:56.368Z,68.09
2019-02-18T01:59:26.882Z,68.07
2019-02-18T02:01:57.208Z,68.01
2019-02-18T02:04:28.133Z,67.80
2019-02-18T02:06:58.526Z,67.69
2019-02-18T02:09:29.367Z,67.67
2019-02-18T02:11:59.772Z,67.77
2019-02-18T02:14:30.102Z,67.87
2019-02-18T02:17:00.392Z,67.94
2019-02-18T02:19:30.768Z,68.13
2019-02-18T02:22:01.124Z,68.21
2019-02-18T02:24:31.547Z,68.25
2019-02-18T02:27:01.871Z,68.36
2019-02-18T02:29:32.259Z,68.46
2019-02-18T02:32:02.560Z,68.54
2019-02-18T02:34:32.956Z,68.59
2019-02-18T02:37:03.372Z,68.78
2019-02-18T02:39:33.775Z,69.06
2019-02-18T02:42:04.168Z,69.11
2019-02-18T02:44:34.501Z,69.22
2019-02-18T02:47:05.301Z,69.07
2019-02-18T02:49:36.159Z,69.06
2019-02-18T02:52:06.979Z,68.96
2019-02-18T02:54:37.445Z,68.97
2019-02-18T02:57:07.796Z,68.90
2019-02-18T02:59:38.228Z,68.94
2019-02-18T03:02:09.049Z,69.16
2019-02-18T03:04:39.493Z,69.27
2019-02-18T03:07:09.926Z,69.46
2019-02-18T03:09:40.255Z,69.61
2019-02-18T03:12:10.952Z,69.57
2019-02-18T03:14:41.283Z,69.67
2019-02-18T03:17:11.590Z,69.71
2019-02-18T03:19:41.989Z,69.76
2019-02-18T03:22:12.521Z,69.93
2019-02-18T03:25:18.672Z,69.85
2019-02-18T03:27:50.167Z,69.61
2019-02-18T03:30:48.655Z,69.73
2019-02-18T03:33:22.484Z,69.93
2019-02-18T03:35:52.903Z,70.13
2019-02-18T03:38:31.084Z,70.39
2019-02-18T03:41:02.873Z,70.59
2019-02-18T03:43:27.628Z,70.59
2019-02-18T03:45:58.037Z,70.44
2019-02-18T03:48:28.340Z,70.44
2019-02-18T03:50:58.734Z,70.38
2019-02-18T03:53:29.466Z,70.38
2019-02-18T03:56:00.461Z,70.53
2019-02-18T03:58:30.835Z,70.78
2019-02-18T04:01:01.266Z,70.90
2019-02-18T04:03:31.652Z,70.97
2019-02-18T04:06:02.208Z,71.15
2019-02-18T04:08:42.339Z,71.28
2019-02-18T04:11:04.780Z,71.37
2019-02-18T04:13:35.128Z,71.43
2019-02-18T04:16:05.875Z,71.43
2019-02-18T04:18:36.261Z,71.48
2019-02-18T04:21:06.590Z,71.48
2019-02-18T04:23:36.998Z,71.56
2019-02-18T04:26:07.322Z,71.67
2019-02-18T04:28:37.906Z,71.66
2019-02-18T04:31:08.228Z,71.71
2019-02-18T04:33:38.608Z,71.90
2019-02-18T04:36:10.869Z,72.19
2019-02-18T04:38:41.280Z,72.44
2019-02-18T04:41:11.570Z,72.67
2019-02-18T04:43:42.328Z,72.74
2019-02-18T04:46:12.762Z,72.84
2019-02-18T04:48:43.105Z,73.00
2019-02-18T04:51:14.028Z,73.06
2019-02-18T04:53:44.434Z,72.99
2019-02-18T04:56:15.252Z,73.06
2019-02-18T04:58:45.702Z,72.98
2019-02-18T05:01:16.964Z,73.03
2019-02-18T05:03:47.642Z,73.13
2019-02-18T05:06:18.200Z,73.47
2019-02-18T05:08:48.532Z,73.53
2019-02-18T05:11:23.072Z,73.43
2019-02-18T05:13:51.135Z,73.34
2019-02-18T05:16:21.537Z,73.23
2019-02-18T05:18:51.868Z,73.08
2019-02-18T05:21:22.266Z,73.08
2019-02-18T05:23:52.581Z,73.16
2019-02-18T05:26:24.487Z,73.11
2019-02-18T05:28:54.835Z,73.10
2019-02-18T05:31:25.169Z,73.22
2019-02-18T05:33:55.570Z,73.21
2019-02-18T05:36:26.325Z,73.25
2019-02-18T05:38:56.707Z,73.35
2019-02-18T05:41:27.072Z,73.43
2019-02-18T05:43:57.452Z,73.43
2019-02-18T05:46:27.804Z,73.66
2019-02-18T05:48:58.227Z,74.00
2019-02-18T05:51:29.005Z,74.15
2019-02-18T05:53:59.764Z,74.08
2019-02-18T05:56:30.091Z,73.83
2019-02-18T05:59:01.152Z,73.81
2019-02-18T06:01:31.721Z,73.90
2019-02-18T06:04:02.098Z,73.79
2019-02-18T06:06:33.020Z,73.97
2019-02-18T06:09:04.759Z,74.35
2019-02-18T06:11:35.080Z,74.51
2019-02-18T06:14:05.614Z,74.24
2019-02-18T06:16:36.011Z,73.97
2019-02-18T06:19:06.386Z,73.72
2019-02-18T06:21:36.833Z,73.65
2019-02-18T06:24:07.556Z,73.54
2019-02-18T06:26:38.103Z,73.75
2019-02-18T06:29:08.425Z,73.80
2019-02-18T06:31:38.820Z,73.73
2019-02-18T06:34:09.143Z,74.03
2019-02-18T06:36:39.615Z,73.95
2019-02-18T06:39:10.055Z,74.34
2019-02-18T06:41:40.431Z,74.00
2019-02-18T06:44:10.890Z,73.36
2019-02-18T06:46:50.940Z,72.60
2019-02-18T06:49:23.735Z,72.19
2019-02-18T06:51:54.102Z,69.51
2019-02-18T06:54:24.431Z,67.02
2019-02-18T06:57:31.652Z,67.38
2019-02-18T07:00:09.665Z,66.97
2019-02-18T07:03:14.099Z,66.08
2019-02-18T07:05:57.687Z,65.19
2019-02-18T07:08:41.863Z,64.91
2019-02-18T07:11:31.987Z,64.94
2019-02-18T07:14:02.383Z,63.55
2019-02-18T07:16:32.793Z,60.60
2019-02-18T07:19:03.707Z,59.23
2019-02-18T07:21:34.237Z,55.11
2019-02-18T07:24:05.318Z,48.83
2019-02-18T07:26:35.636Z,48.04
2019-02-18T07:29:06.053Z,46.25
2019-02-18T07:31:36.420Z,46.02
2019-02-18T07:34:06.766Z,43.59
2019-02-18T07:36:37.170Z,42.91
2019-02-18T07:39:08.878Z,42.62
2019-02-18T07:41:39.266Z,41.09
2019-02-18T07:44:09.650Z,39.69
2019-02-18T07:46:40.057Z,38.61
2019-02-18T07:49:10.842Z,37.41
2019-02-18T07:51:41.183Z,35.90
2019-02-18T07:54:11.858Z,35.65
2019-02-18T07:56:42.318Z,36.47
2019-02-18T07:59:12.675Z,35.62
2019-02-18T08:01:43.185Z,34.91
2019-02-18T08:04:13.532Z,35.13
2019-02-18T08:06:44.226Z,33.96
2019-02-18T08:09:14.566Z,33.40
2019-02-18T08:11:45.177Z,34.25
2019-02-18T08:14:15.550Z,34.14
2019-02-18T08:16:46.012Z,34.72
2019-02-18T08:19:16.653Z,33.92
2019-02-18T08:21:47.034Z,33.13
2019-02-18T08:24:17.413Z,33.49
2019-02-18T08:26:47.891Z,33.66
2019-02-18T08:29:18.359Z,33.72
2019-02-18T08:31:48.664Z,33.93
2019-02-18T08:34:19.558Z,34.46
2019-02-18T08:36:49.847Z,34.38
2019-02-18T08:39:20.512Z,33.89
2019-02-18T08:41:50.934Z,32.29
2019-02-18T08:44:21.366Z,31.75
2019-02-18T08:46:51.805Z,30.38
2019-02-18T08:49:22.159Z,30.25
2019-02-18T08:51:52.554Z,31.47
2019-02-18T08:54:22.880Z,31.20
2019-02-18T08:56:53.869Z,31.47
2019-02-18T08:59:24.381Z,32.20
2019-02-18T09:01:54.911Z,33.03
2019-02-18T09:04:25.229Z,32.56
2019-02-18T09:06:55.627Z,32.75
2019-02-18T09:09:26.012Z,31.60
2019-02-18T09:11:56.621Z,32.18
2019-02-18T09:14:29.098Z,32.27
2019-02-18T09:16:59.499Z,32.07
2019-02-18T09:19:30.314Z,31.78
2019-02-18T09:22:18.494Z,32.46
2019-02-18T09:24:55.105Z,32.24
2019-02-18T09:27:25.739Z,33.35
2019-02-18T09:29:56.174Z,34.30
2019-02-18T09:32:26.548Z,33.93
2019-02-18T09:35:02.085Z,33.59
2019-02-18T09:37:29.535Z,33.53
2019-02-18T09:40:00.146Z,34.29
2019-02-18T09:42:30.683Z,33.66
2019-02-18T09:45:01.001Z,33.06
2019-02-18T09:47:31.873Z,33.09
2019-02-18T09:50:03.875Z,31.68
2019-02-18T09:52:34.899Z,32.17
2019-02-18T09:55:07.547Z,33.31
2019-02-18T09:57:49.194Z,32.52
2019-02-18T10:00:19.933Z,31.89
2019-02-18T10:02:50.878Z,31.85
2019-02-18T10:05:21.265Z,31.82
2019-02-18T10:07:51.624Z,31.91
2019-02-18T10:10:22.155Z,32.08
2019-02-18T10:12:52.705Z,32.51
2019-02-18T10:15:23.641Z,32.28
2019-02-18T10:17:54.533Z,33.13
2019-02-18T10:20:24.902Z,32.33
2019-02-18T10:22:55.219Z,32.58
2019-02-18T10:25:25.706Z,32.61
2019-02-18T10:27:56.451Z,33.25
2019-02-18T10:30:26.788Z,33.39
2019-02-18T10:32:57.302Z,32.61
2019-02-18T10:35:27.758Z,32.00
2019-02-18T10:37:58.288Z,32.10
2019-02-18T10:40:28.703Z,32.63
2019-02-18T10:42:59.187Z,31.87
2019-02-18T10:45:29.564Z,31.70
2019-02-18T10:47:59.936Z,31.01
2019-02-18T10:50:30.407Z,32.02
2019-02-18T10:53:01.233Z,32.06
2019-02-18T10:55:31.908Z,31.49
2019-02-18T10:58:19.690Z,31.72
2019-02-18T11:00:50.390Z,31.27
2019-02-18T11:03:22.505Z,30.24
2019-02-18T11:05:52.895Z,29.84
2019-02-18T11:08:23.335Z,30.35
2019-02-18T11:10:53.811Z,31.40
2019-02-18T11:13:24.881Z,31.60
2019-02-18T11:15:57.886Z,30.74
2019-02-18T11:18:28.706Z,30.95
2019-02-18T11:20:59.065Z,31.09
2019-02-18T11:23:29.870Z,31.01
2019-02-18T11:26:00.236Z,30.03
2019-02-18T11:28:30.603Z,30.26
2019-02-18T11:31:01.016Z,30.95
2019-02-18T11:33:31.384Z,28.17
2019-02-18T11:36:02.477Z,28.34
2019-02-18T11:38:53.918Z,28.26
2019-02-18T11:41:30.346Z,28.78
2019-02-18T11:44:01.198Z,27.11
2019-02-18T11:46:31.512Z,27.62
2019-02-18T11:49:01.903Z,27.51
2019-02-18T11:51:32.217Z,27.15
2019-02-18T11:54:02.975Z,27.25
2019-02-18T11:56:33.857Z,26.87
2019-02-18T11:59:04.279Z,27.28
2019-02-18T12:01:34.739Z,27.55
2019-02-18T12:04:05.113Z,28.08
2019-02-18T12:06:35.527Z,27.31
2019-02-18T12:09:07.153Z,27.11
2019-02-18T12:11:38.326Z,27.53
2019-02-18T12:14:09.025Z,28.03
2019-02-18T12:16:39.382Z,28.59
2019-02-18T12:19:10.346Z,28.38
2019-02-18T12:21:40.645Z,28.56
2019-02-18T12:24:11.019Z,28.84
2019-02-18T12:26:41.389Z,27.56
2019-02-18T12:29:11.876Z,28.10
2019-02-18T12:31:42.348Z,27.44
2019-02-18T12:34:12.887Z,26.26
2019-02-18T12:36:44.143Z,26.98
2019-02-18T12:39:15.334Z,27.22
2019-02-18T12:41:48.970Z,26.95
2019-02-18T12:44:19.028Z,27.12
2019-02-18T12:46:49.497Z,26.69
2019-02-18T12:49:19.899Z,26.69
2019-02-18T12:51:50.982Z,27.07
2019-02-18T12:54:21.640Z,26.29
2019-02-18T12:56:52.105Z,26.80
2019-02-18T12:59:22.706Z,27.56
2019-02-18T13:01:53.234Z,27.33
2019-02-18T13:04:23.860Z,26.68
2019-02-18T13:06:55.281Z,26.54
2019-02-18T13:09:26.138Z,26.05
2019-02-18T13:11:58.886Z,25.78
2019-02-18T13:14:28.631Z,25.47
2019-02-18T13:16:59.383Z,25.12
2019-02-18T13:19:29.797Z,25.49
2019-02-18T13:22:00.621Z,26.38
2019-02-18T13:24:30.933Z,26.01
2019-02-18T13:27:01.505Z,26.67
2019-02-18T13:29:31.874Z,27.10
2019-02-18T13:32:02.261Z,27.07
2019-02-18T13:34:32.954Z,26.87
2019-02-18T13:37:05.100Z,26.63
2019-02-18T13:39:35.448Z,26.81
2019-02-18T13:42:07.715Z,26.66
2019-02-18T13:44:38.286Z,27.03
2019-02-18T13:47:09.284Z,26.58
2019-02-18T13:49:40.018Z,26.12
2019-02-18T13:52:10.618Z,26.63
2019-02-18T13:54:41.081Z,25.88
2019-02-18T13:57:11.635Z,26.56
2019-02-18T13:59:42.132Z,26.27
2019-02-18T14:02:12.603Z,26.28
2019-02-18T14:04:43.312Z,25.69
2019-02-18T14:07:13.697Z,26.14
2019-02-18T14:09:44.092Z,27.04
2019-02-18T14:12:16.395Z,26.39
2019-02-18T14:14:47.470Z,26.52
2019-02-18T14:17:18.756Z,26.54
2019-02-18T14:19:49.083Z,26.66
2019-02-18T14:22:19.474Z,26.72
2019-02-18T14:24:49.907Z,27.25
2019-02-18T14:27:21.477Z,27.55
2019-02-18T14:29:52.192Z,28.46
2019-02-18T14:32:22.593Z,27.56
2019-02-18T14:34:52.990Z,27.97
2019-02-18T14:37:23.641Z,27.61
2019-02-18T14:39:54.131Z,27.69
2019-02-18T14:42:25.047Z,27.45
2019-02-18T14:44:55.442Z,27.93
2019-02-18T14:47:25.986Z,27.88
2019-02-18T14:49:56.275Z,27.74
2019-02-18T14:52:26.708Z,27.90
2019-02-18T14:54:57.019Z,27.94
2019-02-18T14:57:28.067Z,28.20
2019-02-18T14:59:58.477Z,28.98
2019-02-18T15:02:29.469Z,29.45
2019-02-18T15:04:59.955Z,28.96
2019-02-18T15:07:30.431Z,29.23
2019-02-18T15:10:01.222Z,29.22
2019-02-18T15:12:33.272Z,29.42
2019-02-18T15:15:04.169Z,29.16
2019-02-18T15:17:41.709Z,30.04
2019-02-18T15:20:16.565Z,30.32
2019-02-18T15:22:49.575Z,30.32
2019-02-18T15:25:20.514Z,30.58
2019-02-18T15:27:57.454Z,30.61
2019-02-18T15:30:43.418Z,31.23
2019-02-18T15:33:25.558Z,31.40
2019-02-18T15:35:59.746Z,31.45
2019-02-18T15:38:35.404Z,32.00
2019-02-18T15:41:12.818Z,32.04
2019-02-18T15:44:05.747Z,31.96
2019-02-18T15:46:49.775Z,31.93
2019-02-18T15:49:35.895Z,32.21
2019-02-18T15:52:11.127Z,32.47
2019-02-18T15:54:45.415Z,33.09
2019-02-18T15:57:20.806Z,33.66
2019-02-18T16:00:01.080Z,33.61
2019-02-18T16:02:32.026Z,34.03
2019-02-18T16:05:04.227Z,34.33
2019-02-18T16:07:40.815Z,34.57
2019-02-18T16:10:21.866Z,34.89
2019-02-18T16:12:55.979Z,35.13
2019-02-18T16:15:26.238Z,35.68
2019-02-18T16:17:57.131Z,36.14
2019-02-18T16:20:45.678Z,36.86
2019-02-18T16:23:16.700Z,36.85
2019-02-18T16:25:47.702Z,37.49
2019-02-18T16:28:28.091Z,37.99
2019-02-18T16:30:58.730Z,38.94
2019-02-18T16:33:29.747Z,38.87
2019-02-18T16:36:00.491Z,39.92
2019-02-18T16:38:31.522Z,40.55
2019-02-18T16:41:02.638Z,41.22
2019-02-18T16:43:33.590Z,41.27
2019-02-18T16:46:07.380Z,41.36
2019-02-18T16:48:38.291Z,42.01
2019-02-18T16:51:11.011Z,43.36
2019-02-18T16:53:41.693Z,43.59
2019-02-18T16:56:12.412Z,43.17
2019-02-18T16:58:43.668Z,43.63
2019-02-18T17:01:22.365Z,43.82
2019-02-18T17:03:53.012Z,44.20
2019-02-18T17:06:35.635Z,44.88
2019-02-18T17:09:18.638Z,45.53
2019-02-18T17:11:50.045Z,45.67
2019-02-18T17:14:21.466Z,46.26
2019-02-18T17:16:52.184Z,46.70
2019-02-18T17:19:25.937Z,47.07
2019-02-18T17:21:56.771Z,47.83
2019-02-18T17:24:28.364Z,48.63
2019-02-18T17:26:59.206Z,48.66
2019-02-18T17:29:30.056Z,48.76
2019-02-18T17:32:01.059Z,48.96
2019-02-18T17:34:31.644Z,49.08
2019-02-18T17:37:02.768Z,48.91
2019-02-18T17:39:33.353Z,49.36
2019-02-18T17:42:05.315Z,49.65
2019-02-18T17:44:36.030Z,49.97
2019-02-18T17:47:07.054Z,50.48
2019-02-18T17:49:38.176Z,50.87
2019-02-18T17:52:08.979Z,50.74
2019-02-18T17:54:39.889Z,51.21
2019-02-18T17:57:11.190Z,51.37
2019-02-18T17:59:41.811Z,51.49
2019-02-18T18:02:15.310Z,51.37
2019-02-18T18:04:46.100Z,51.45
2019-02-18T18:07:17.479Z,52.14
2019-02-18T18:09:56.701Z,52.25
2019-02-18T18:12:27.390Z,52.30
2019-02-18T18:14:58.381Z,52.11
2019-02-18T18:17:28.969Z,52.46
2019-02-18T18:19:59.669Z,52.65
2019-02-18T18:22:36.539Z,52.75
2019-02-18T18:25:07.642Z,53.36
2019-02-18T18:27:41.440Z,53.84
2019-02-18T18:30:13.400Z,54.06
2019-02-18T18:32:45.299Z,54.16
2019-02-18T18:35:16.200Z,54.60
2019-02-18T18:37:46.871Z,54.75
2019-02-18T18:40:17.762Z,55.01
2019-02-18T18:42:50.353Z,55.32
2019-02-18T18:45:21.334Z,55.55
2019-02-18T18:47:52.259Z,55.61
2019-02-18T18:50:23.109Z,55.75
2019-02-18T18:52:55.939Z,55.91
2019-02-18T18:55:26.803Z,56.08
2019-02-18T18:57:57.733Z,56.17
2019-02-18T19:00:29.113Z,56.41
2019-02-18T19:03:08.985Z,56.57
2019-02-18T19:05:56.921Z,56.83
2019-02-18T19:08:50.566Z,57.05
2019-02-18T19:11:31.534Z,57.31
2019-02-18T19:14:05.704Z,57.41
2019-02-18T19:16:47.655Z,57.62
2019-02-18T19:19:46.072Z,58.10
2019-02-18T19:22:41.215Z,57.99
2019-02-18T19:25:37.805Z,57.62
2019-02-18T19:28:22.786Z,57.26
2019-02-18T19:30:51.927Z,57.03
2019-02-18T19:35:37.815Z,57.02
2019-02-18T19:36:56.172Z,56.88
2019-02-18T19:43:56.778Z,56.35
2019-02-18T19:46:53.155Z,56.23
2019-02-18T19:49:30.878Z,56.12
2019-02-18T19:52:06.005Z,56.21
2019-02-18T19:54:40.783Z,56.24
2019-02-18T19:57:17.028Z,56.29
2019-02-18T19:59:56.758Z,56.44
2019-02-18T20:02:34.317Z,56.69
2019-02-18T20:05:07.486Z,57.10
2019-02-18T20:07:40.048Z,57.27
2019-02-18T20:10:14.110Z,57.45
2019-02-18T20:12:49.608Z,57.93
2019-02-18T20:15:24.951Z,58.10
2019-02-18T20:17:57.782Z,58.09
2019-02-18T20:20:33.226Z,57.94
2019-02-18T20:23:10.695Z,58.05
2019-02-18T20:25:43.400Z,57.98
2019-02-18T20:28:54.902Z,57.82
2019-02-18T20:31:23.604Z,57.86
2019-02-18T20:34:18.581Z,57.94
2019-02-18T20:37:27.088Z,57.95
2019-02-18T20:40:01.441Z,58.05
2019-02-18T20:42:33.871Z,58.35
2019-02-18T20:45:37.109Z,57.93
2019-02-18T20:48:11.096Z,57.59
2019-02-18T20:51:05.123Z,57.53
2019-02-18T20:53:48.064Z,57.61
2019-02-18T20:56:29.441Z,57.47
2019-02-18T20:59:03.990Z,57.55
2019-02-18T21:01:36.364Z,57.33
2019-02-18T21:04:21.094Z,57.17
2019-02-18T21:06:53.113Z,56.98
2019-02-18T21:09:24.036Z,56.79
2019-02-18T21:12:05.023Z,56.82
2019-02-18T21:14:37.839Z,57.04
2019-02-18T21:17:09.439Z,57.50
2019-02-18T21:19:42.750Z,57.46
2019-02-18T21:22:14.287Z,57.58
2019-02-18T21:24:45.917Z,57.71
2019-02-18T21:27:16.987Z,58.04
2019-02-18T21:29:54.426Z,58.21
2019-02-18T21:32:28.335Z,58.32
2019-02-18T21:35:08.713Z,58.54
2019-02-18T21:37:50.722Z,58.71
2019-02-18T21:40:21.569Z,58.93
2019-02-18T21:43:17.200Z,59.11
2019-02-18T21:45:56.021Z,59.08
2019-02-18T21:48:30.730Z,59.29
2019-02-18T21:51:23.049Z,59.77
2019-02-18T21:54:21.090Z,60.04
2019-02-18T21:57:23.945Z,60.42
2019-02-18T21:59:54.414Z,60.59
2019-02-18T22:02:24.833Z,61.27
2019-02-18T22:04:55.223Z,61.74
2019-02-18T22:07:26.045Z,61.92
2019-02-18T22:09:59.115Z,62.00
2019-02-18T22:12:29.521Z,61.59
2019-02-18T22:15:01.933Z,61.34
2019-02-18T22:17:32.277Z,61.26
2019-02-18T22:20:06.742Z,61.39
2019-02-18T22:22:37.675Z,61.72
2019-02-18T22:25:09.352Z,61.68
2019-02-18T22:27:40.519Z,61.83
2019-02-18T22:30:12.548Z,61.90
2019-02-18T22:32:44.741Z,61.88
2019-02-18T22:35:15.862Z,61.81
2019-02-18T22:37:46.798Z,61.92
2019-02-18T22:40:18.059Z,62.00
2019-02-18T22:42:52.654Z,61.83
2019-02-18T22:45:23.495Z,61.90
2019-02-18T22:47:54.419Z,61.79
2019-02-18T22:50:25.212Z,61.93
2019-02-18T22:52:55.952Z,61.57
2019-02-18T22:55:26.585Z,61.29
2019-02-18T22:57:57.494Z,60.91
2019-02-18T23:00:52.102Z,60.72
2019-02-18T23:03:23.875Z,60.70
2019-02-18T23:05:54.722Z,60.88
2019-02-18T23:08:25.502Z,61.16
2019-02-18T23:10:56.845Z,61.39
2019-02-18T23:13:27.993Z,61.60
2019-02-18T23:15:59.183Z,61.88
2019-02-18T23:18:30.816Z,62.04
2019-02-18T23:21:03.007Z,62.15
2019-02-18T23:23:33.707Z,61.99
2019-02-18T23:26:04.689Z,61.91
2019-02-18T23:28:35.615Z,61.88
2019-02-18T23:31:06.605Z,61.84
2019-02-18T23:33:39.007Z,61.92
2019-02-18T23:36:11.978Z,62.13
2019-02-18T23:38:43.757Z,62.34
2019-02-18T23:41:14.713Z,62.51
2019-02-18T23:43:48.799Z,62.64
2019-02-18T23:46:20.286Z,62.51
2019-02-18T23:48:51.161Z,62.52
2019-02-18T23:51:22.155Z,62.60
2019-02-18T23:53:53.718Z,63.13
2019-02-18T23:56:25.320Z,63.57
2019-02-18T23:59:00.866Z,63.60
